createdAt,value
2023-01-20T04:46:36.926Z,16.85
2023-01-20T04:47:34.930Z,17.00
2023-01-20T04:48:34.903Z,16.90
2023-01-20T04:49:34.901Z,16.93
2023-01-20T04:50:34.904Z,17.01
2023-01-20T04:51:34.885Z,17.09
2023-01-20T04:52:34.882Z,17.06
2023-01-20T04:53:34.869Z,17.21
2023-01-20T04:54:34.853Z,16.95
2023-01-20T04:55:34.844Z,17.10
2023-01-20T04:56:34.827Z,17.12
2023-01-20T04:57:34.835Z,17.34
2023-01-20T04:58:34.824Z,17.23
2023-01-20T04:59:34.829Z,17.24
2023-01-20T05:00:34.817Z,17.15
2023-01-20T05:01:34.865Z,17.10
2023-01-20T05:02:34.888Z,16.93
2023-01-20T05:03:34.799Z,16.95
2023-01-20T05:04:34.807Z,17.11
2023-01-20T05:05:34.791Z,17.33
2023-01-20T05:06:34.795Z,17.35
2023-01-20T05:07:34.781Z,17.12
2023-01-20T05:08:34.781Z,17.12
2023-01-20T05:09:34.777Z,16.95
2023-01-20T05:10:34.774Z,17.08
2023-01-20T05:11:34.774Z,17.02
2023-01-20T05:12:34.769Z,17.25
2023-01-20T05:13:34.771Z,17.28
2023-01-20T05:14:34.760Z,16.97
2023-01-20T05:15:34.788Z,17.00
2023-01-20T05:16:34.740Z,17.05
2023-01-20T05:17:34.739Z,16.94
2023-01-20T05:18:34.771Z,17.10
2023-01-20T05:19:34.732Z,17.35
2023-01-20T05:20:34.751Z,17.04
2023-01-20T05:21:34.702Z,17.04
2023-01-20T05:22:34.695Z,16.98
2023-01-20T05:23:34.699Z,17.03
2023-01-20T05:24:34.702Z,16.96
2023-01-20T05:25:34.708Z,17.12
2023-01-20T05:26:34.691Z,17.42
2023-01-20T05:27:34.686Z,17.10
2023-01-20T05:28:34.688Z,17.00
2023-01-20T05:29:34.670Z,17.05
2023-01-20T05:30:34.691Z,17.08
2023-01-20T05:31:34.734Z,16.98
2023-01-20T05:32:34.659Z,17.08
2023-01-20T05:33:34.646Z,17.24
2023-01-20T05:34:34.660Z,17.16
2023-01-20T05:35:34.636Z,16.92
2023-01-20T05:36:34.636Z,17.04
2023-01-20T05:37:34.619Z,17.15
2023-01-20T05:38:34.624Z,17.16
2023-01-20T05:39:34.630Z,17.10
2023-01-20T05:40:34.617Z,17.23
2023-01-20T05:41:34.620Z,17.23
2023-01-20T05:42:34.661Z,17.12
2023-01-20T05:43:34.628Z,17.13
2023-01-20T05:44:34.634Z,17.05
2023-01-20T05:45:34.606Z,16.99
2023-01-20T05:46:34.664Z,17.17
2023-01-20T05:47:34.614Z,17.22
2023-01-20T05:48:34.608Z,17.25
2023-01-20T05:49:34.593Z,17.07
2023-01-20T05:50:34.613Z,16.97
2023-01-20T05:51:34.619Z,17.03
2023-01-20T05:52:34.603Z,17.03
2023-01-20T05:53:34.599Z,17.10
2023-01-20T05:54:34.613Z,17.25
2023-01-20T05:55:34.589Z,17.25
2023-01-20T05:56:34.600Z,17.22
2023-01-20T05:57:34.584Z,17.20
2023-01-20T05:58:34.597Z,17.14
2023-01-20T05:59:34.574Z,17.07
2023-01-20T06:00:34.581Z,17.01
2023-01-20T06:01:34.593Z,17.20
2023-01-20T06:02:34.579Z,17.27
2023-01-20T06:03:34.584Z,17.12
2023-01-20T06:04:34.556Z,17.01
2023-01-20T06:05:34.530Z,17.08
2023-01-20T06:06:34.534Z,16.85
2023-01-20T06:07:34.530Z,17.00
2023-01-20T06:08:34.503Z,17.14
2023-01-20T06:09:34.495Z,17.10
2023-01-20T06:10:34.497Z,17.56
2023-01-20T06:11:34.475Z,18.00
2023-01-20T06:12:34.473Z,17.60
2023-01-20T06:13:34.463Z,17.30
2023-01-20T06:14:34.464Z,17.15
2023-01-20T06:15:34.460Z,17.22
2023-01-20T06:16:34.457Z,17.28
2023-01-20T06:17:34.450Z,17.25
2023-01-20T06:18:34.496Z,17.43
2023-01-20T06:19:34.459Z,17.58
2023-01-20T06:20:34.470Z,17.25
2023-01-20T06:21:34.454Z,17.15
2023-01-20T06:22:34.443Z,17.22
2023-01-20T06:23:34.454Z,17.20
2023-01-20T06:24:34.463Z,17.30
2023-01-20T06:25:34.465Z,17.54
2023-01-20T06:26:34.480Z,18.85
2023-01-20T06:27:34.467Z,19.51
2023-01-20T06:28:35.002Z,20.01
2023-01-20T06:29:34.496Z,20.16
2023-01-20T06:30:34.536Z,20.14
2023-01-20T06:31:34.549Z,20.45
2023-01-20T06:32:34.519Z,20.63
2023-01-20T06:33:34.521Z,20.95
2023-01-20T06:34:34.503Z,21.14
2023-01-20T06:35:34.496Z,21.24
2023-01-20T06:36:34.507Z,21.59
2023-01-20T06:37:34.511Z,21.58
2023-01-20T06:38:34.514Z,22.23
2023-01-20T06:39:34.507Z,22.56
2023-01-20T06:40:34.500Z,22.99
2023-01-20T06:41:34.502Z,23.96
2023-01-20T06:42:34.504Z,24.37
2023-01-20T06:43:34.502Z,24.28
2023-01-20T06:44:34.514Z,24.11
2023-01-20T06:45:34.495Z,23.95
2023-01-20T06:46:34.628Z,24.88
2023-01-20T06:47:34.529Z,25.20
2023-01-20T06:48:34.505Z,24.35
2023-01-20T06:49:34.484Z,23.76
2023-01-20T06:50:34.488Z,23.99
2023-01-20T06:51:34.493Z,24.16
2023-01-20T06:52:34.469Z,24.13
2023-01-20T06:53:34.473Z,23.76
2023-01-20T06:54:34.463Z,23.36
2023-01-20T06:55:34.460Z,23.19
2023-01-20T06:56:34.447Z,23.21
2023-01-20T06:57:34.442Z,23.11
2023-01-20T06:58:34.443Z,22.93
2023-01-20T06:59:34.443Z,22.88
2023-01-20T07:00:34.473Z,22.99
2023-01-20T07:01:34.540Z,22.96
2023-01-20T07:02:34.459Z,22.59
2023-01-20T07:03:34.405Z,22.53
2023-01-20T07:04:34.399Z,22.82
2023-01-20T07:05:34.372Z,22.44
2023-01-20T07:06:34.355Z,22.76
2023-01-20T07:07:34.346Z,23.31
2023-01-20T07:08:34.328Z,22.99
2023-01-20T07:09:34.324Z,22.76
2023-01-20T07:10:34.309Z,22.86
2023-01-20T07:11:34.276Z,22.77
2023-01-20T07:12:34.261Z,22.82
2023-01-20T07:13:34.249Z,22.88
2023-01-20T07:14:34.224Z,22.86
2023-01-20T07:15:34.223Z,23.28
2023-01-20T07:16:34.286Z,22.88
2023-01-20T07:17:34.188Z,22.81
2023-01-20T07:18:34.155Z,22.73
2023-01-20T07:19:34.143Z,22.70
2023-01-20T07:20:34.111Z,23.00
2023-01-20T07:21:34.109Z,22.42
2023-01-20T07:22:34.089Z,22.70
2023-01-20T07:23:34.114Z,22.86
2023-01-20T07:24:34.053Z,22.44
2023-01-20T07:25:34.030Z,22.78
2023-01-20T07:26:33.999Z,22.74
2023-01-20T07:27:33.996Z,22.44
2023-01-20T07:28:33.968Z,22.55
2023-01-20T07:29:33.936Z,22.57
2023-01-20T07:30:33.946Z,22.92
2023-01-20T07:31:33.980Z,22.76
2023-01-20T07:32:33.895Z,22.27
2023-01-20T07:33:33.878Z,22.18
2023-01-20T07:34:33.847Z,22.06
2023-01-20T07:35:33.827Z,22.29
2023-01-20T07:36:33.814Z,22.20
2023-01-20T07:37:33.797Z,22.58
2023-01-20T07:38:33.783Z,22.66
2023-01-20T07:39:33.767Z,22.24
2023-01-20T07:40:33.746Z,22.24
2023-01-20T07:41:33.717Z,22.75
2023-01-20T07:42:33.698Z,23.13
2023-01-20T07:43:33.706Z,23.73
2023-01-20T07:44:33.684Z,24.31
2023-01-20T07:45:33.680Z,24.04
2023-01-20T07:46:33.626Z,23.53
2023-01-20T07:47:33.619Z,23.22
2023-01-20T07:48:33.588Z,22.84
2023-01-20T07:49:33.590Z,23.12
2023-01-20T07:50:33.580Z,22.76
2023-01-20T07:51:33.566Z,22.94
2023-01-20T07:52:33.540Z,22.86
2023-01-20T07:53:33.524Z,22.97
2023-01-20T07:54:33.496Z,23.08
2023-01-20T07:55:33.495Z,23.12
2023-01-20T07:56:33.449Z,22.64
2023-01-20T07:57:33.453Z,22.69
2023-01-20T07:58:33.419Z,22.64
2023-01-20T07:59:33.404Z,22.76
2023-01-20T08:00:33.367Z,22.72
2023-01-20T08:01:33.438Z,22.77
2023-01-20T08:02:33.336Z,22.71
2023-01-20T08:03:33.344Z,22.55
2023-01-20T08:04:33.307Z,22.38
2023-01-20T08:05:33.259Z,22.36
2023-01-20T08:06:33.241Z,22.37
2023-01-20T08:07:33.221Z,22.78
2023-01-20T08:08:33.209Z,22.31
2023-01-20T08:09:33.162Z,22.42
2023-01-20T08:10:33.202Z,22.13
2023-01-20T08:11:33.127Z,22.49
2023-01-20T08:12:33.110Z,21.97
2023-01-20T09:45:30.797Z,21.25
2023-01-20T09:46:30.834Z,23.03
2023-01-20T09:47:31.489Z,23.35
2023-01-20T09:48:30.707Z,22.99
2023-01-20T09:49:30.678Z,23.47
2023-01-20T09:50:30.658Z,21.54
2023-01-20T09:51:30.627Z,20.98
2023-01-20T09:52:30.599Z,19.24
2023-01-20T09:53:30.585Z,19.00
2023-01-20T09:54:30.555Z,17.95
2023-01-20T09:55:30.557Z,18.41
2023-01-20T09:56:30.533Z,16.43
2023-01-20T09:57:30.509Z,16.24
2023-01-20T09:58:30.497Z,16.01
2023-01-20T09:59:30.493Z,15.73
2023-01-20T10:00:30.515Z,15.41
2023-01-20T10:01:30.554Z,15.51
2023-01-20T10:02:30.490Z,15.10
2023-01-20T10:03:30.468Z,15.04
2023-01-20T10:04:30.464Z,14.78
2023-01-20T10:05:30.560Z,14.78
2023-01-20T10:06:30.466Z,14.99
2023-01-20T10:07:30.475Z,15.13
2023-01-20T10:08:30.491Z,15.30
2023-01-20T10:09:32.763Z,15.08
2023-01-20T10:10:30.503Z,16.48
2023-01-20T10:11:30.571Z,17.05
2023-01-20T10:12:30.519Z,17.39
2023-01-20T10:13:30.510Z,17.73
2023-01-20T10:14:30.510Z,17.81
2023-01-20T10:15:30.515Z,18.11
2023-01-20T10:16:30.488Z,18.36
2023-01-20T10:17:30.490Z,18.43
2023-01-20T10:18:30.480Z,18.64
2023-01-20T10:19:30.472Z,18.69
2023-01-20T10:20:30.459Z,18.65
2023-01-20T10:21:30.560Z,18.78
2023-01-20T10:22:30.522Z,18.85
2023-01-20T10:23:30.451Z,19.07
2023-01-20T10:24:30.443Z,19.24
2023-01-20T10:25:30.417Z,19.30
2023-01-20T10:26:30.399Z,19.44
2023-01-20T10:27:30.413Z,19.52
2023-01-20T10:28:30.381Z,19.64
2023-01-20T10:29:30.340Z,19.61
2023-01-20T10:30:30.425Z,19.58
2023-01-20T10:31:30.310Z,19.91
2023-01-20T10:32:30.294Z,19.96
2023-01-20T10:33:30.270Z,20.11
2023-01-20T10:34:30.245Z,20.07
2023-01-20T10:35:30.243Z,20.21
2023-01-20T10:36:30.217Z,20.18
2023-01-20T10:37:30.232Z,20.32
2023-01-20T10:38:30.164Z,20.42
2023-01-20T10:39:30.150Z,20.78
2023-01-20T10:40:30.179Z,20.98
2023-01-20T10:41:30.111Z,21.22
2023-01-20T10:42:30.122Z,21.36
2023-01-20T10:43:30.100Z,21.71
2023-01-20T10:44:30.044Z,22.86
2023-01-20T10:45:30.021Z,22.89
2023-01-20T10:46:30.032Z,23.09
2023-01-20T10:47:29.982Z,23.29
2023-01-20T10:48:29.981Z,23.35
2023-01-20T10:49:29.941Z,23.68
2023-01-20T10:50:29.944Z,23.58
2023-01-20T10:51:29.897Z,23.63
2023-01-20T10:52:29.856Z,23.60
2023-01-20T10:53:29.876Z,23.98
2023-01-20T10:54:29.841Z,24.35
2023-01-20T10:55:29.817Z,24.55
2023-01-20T10:56:31.669Z,24.62
2023-01-20T10:57:29.757Z,24.53
2023-01-20T10:58:29.762Z,24.50
2023-01-20T10:59:29.715Z,24.66
2023-01-20T11:00:29.697Z,24.61
2023-01-20T11:01:29.692Z,24.62
2023-01-20T11:02:29.717Z,24.59
2023-01-20T11:03:29.655Z,24.84
2023-01-20T11:04:29.618Z,24.88
2023-01-20T11:05:29.591Z,24.96
2023-01-20T11:06:29.585Z,24.69
2023-01-20T11:07:29.547Z,24.80
2023-01-20T11:08:29.549Z,24.60
2023-01-20T11:09:29.508Z,23.56
2023-01-20T11:10:29.484Z,23.33
2023-01-20T11:11:29.491Z,23.01
2023-01-20T11:12:29.543Z,22.74
2023-01-20T11:13:29.449Z,22.75
2023-01-20T11:14:29.413Z,22.59
2023-01-20T11:15:29.405Z,22.48
2023-01-20T11:16:29.409Z,22.34
2023-01-20T11:17:29.353Z,22.48
2023-01-20T11:18:29.343Z,22.76
2023-01-20T11:19:29.316Z,23.35
2023-01-20T11:20:29.290Z,23.43
2023-01-20T11:21:29.273Z,22.92
2023-01-20T11:22:29.262Z,22.58
2023-01-20T11:23:29.234Z,22.38
2023-01-20T11:24:29.216Z,22.47
2023-01-20T11:25:29.183Z,22.07
2023-01-20T11:26:29.173Z,22.24
2023-01-20T11:27:29.160Z,22.20
2023-01-20T11:28:29.129Z,22.28
2023-01-20T11:29:29.103Z,22.05
2023-01-20T11:30:29.078Z,21.86
2023-01-20T11:31:29.068Z,21.77
2023-01-20T11:32:29.034Z,21.59
2023-01-20T11:33:29.043Z,21.56
2023-01-20T11:34:28.997Z,21.81
2023-01-20T11:35:28.984Z,22.34
2023-01-20T11:36:28.945Z,23.22
2023-01-20T11:37:28.934Z,24.46
2023-01-20T11:38:28.913Z,24.82
2023-01-20T11:39:28.910Z,25.18
2023-01-20T11:40:28.904Z,24.69
2023-01-20T12:00:29.129Z,21.85
2023-01-20T15:59:23.950Z,18.17
2023-01-20T16:00:23.949Z,18.20
2023-01-20T16:01:24.211Z,18.17
2023-01-20T16:02:23.986Z,18.26
2023-01-20T16:03:23.916Z,18.27
2023-01-20T16:04:23.912Z,18.26
2023-01-20T16:05:23.915Z,18.22
2023-01-20T16:06:23.907Z,18.35
2023-01-20T16:07:23.903Z,18.30
2023-01-20T16:08:23.901Z,18.26
2023-01-20T16:09:23.885Z,18.29
2023-01-20T16:10:23.880Z,18.29
2023-01-20T16:11:23.867Z,18.37
2023-01-20T16:12:23.854Z,18.27
2023-01-20T16:13:23.862Z,18.31
2023-01-20T16:14:23.859Z,18.28
2023-01-20T16:15:23.825Z,18.23
2023-01-20T16:16:23.952Z,18.32
2023-01-20T16:17:23.824Z,18.32
2023-01-20T18:18:24.375Z,19.24
2023-01-20T18:19:24.370Z,19.23
2023-01-20T18:20:24.372Z,19.24
2023-01-20T18:21:24.370Z,19.16
2023-01-20T18:22:24.345Z,19.15
2023-01-20T18:23:24.339Z,19.21
2023-01-20T18:24:24.343Z,19.23
2023-01-20T18:25:24.346Z,19.26
2023-01-20T18:26:24.308Z,19.22
2023-01-20T18:27:24.312Z,19.23
2023-01-20T18:28:24.288Z,19.32
2023-01-20T18:29:24.292Z,19.27
2023-01-20T18:30:24.291Z,19.25
2023-01-20T18:31:24.376Z,19.32
2023-01-20T18:32:24.296Z,19.24
2023-01-20T18:33:24.267Z,19.30
2023-01-20T18:34:24.254Z,19.31
2023-01-20T18:35:24.244Z,19.23
2023-01-20T18:36:24.244Z,19.25
2023-01-20T18:37:24.232Z,19.33
2023-01-20T18:38:24.238Z,19.29
2023-01-20T18:39:24.263Z,19.29
2023-01-20T18:40:24.229Z,19.33
2023-01-20T18:41:24.227Z,19.31
2023-01-20T18:42:24.208Z,19.28
2023-01-20T18:43:24.206Z,19.24
2023-01-20T18:44:24.210Z,19.29
2023-01-20T18:45:24.210Z,19.26
2023-01-20T18:46:24.237Z,19.11
2023-01-20T18:47:24.206Z,19.10
2023-01-20T18:48:24.177Z,19.16
2023-01-20T18:49:24.178Z,19.21
2023-01-20T18:50:24.179Z,19.12
2023-01-20T18:51:24.159Z,19.24
2023-01-20T18:52:24.165Z,19.07
2023-01-20T18:53:24.148Z,18.97
2023-01-20T18:54:24.131Z,18.99
2023-01-20T18:55:24.131Z,19.06
2023-01-20T18:56:24.118Z,19.08
2023-01-20T18:57:24.119Z,19.09
2023-01-20T18:58:24.102Z,19.25
2023-01-20T18:59:24.105Z,19.13
2023-01-20T19:00:24.093Z,18.95
2023-01-20T19:01:24.130Z,18.94
2023-01-20T19:02:24.098Z,18.96
2023-01-20T19:03:24.084Z,19.02
2023-01-20T19:04:24.102Z,19.04
2023-01-20T19:05:24.098Z,19.09
2023-01-20T19:06:24.082Z,18.89
2023-01-20T19:07:24.078Z,18.80
2023-01-20T19:08:24.083Z,18.85
2023-01-20T19:09:24.072Z,18.89
2023-01-20T19:10:24.072Z,19.00
2023-01-20T19:11:24.087Z,18.97
2023-01-20T19:12:24.076Z,18.98
2023-01-20T19:13:24.077Z,18.89
2023-01-20T19:14:24.066Z,18.80
2023-01-20T19:15:24.081Z,18.75
2023-01-20T19:16:24.065Z,18.93
2023-01-20T19:17:24.061Z,18.89
2023-01-20T19:18:24.055Z,18.99
2023-01-20T19:19:24.051Z,19.01
2023-01-20T19:20:24.053Z,18.84
2023-01-20T19:21:24.059Z,18.69
2023-01-20T19:22:24.057Z,18.73
2023-01-20T19:23:24.038Z,18.82
2023-01-20T19:24:24.044Z,18.79
2023-01-20T19:25:24.043Z,18.82
2023-01-20T19:26:24.050Z,18.82
2023-01-20T19:27:24.038Z,18.76
2023-01-20T19:28:24.034Z,18.92
2023-01-20T19:29:24.043Z,18.92
2023-01-20T19:30:24.034Z,19.00
2023-01-20T19:31:24.185Z,19.03
2023-01-20T19:32:24.010Z,19.09
2023-01-20T19:33:24.009Z,19.05
2023-01-20T19:34:24.009Z,18.90
2023-01-20T19:35:24.012Z,18.80
2023-01-20T19:36:23.995Z,18.87
2023-01-20T19:37:23.999Z,18.92
2023-01-20T19:38:23.967Z,19.05
2023-01-20T19:39:23.960Z,19.09
2023-01-20T19:40:23.951Z,18.99
2023-01-20T19:41:23.957Z,18.92
2023-01-20T19:42:25.739Z,18.70
2023-01-20T19:43:23.954Z,18.81
2023-01-20T19:44:23.957Z,18.87
2023-01-20T19:45:26.958Z,18.91
2023-01-20T19:46:23.968Z,18.92
2023-01-20T19:47:23.964Z,19.05
2023-01-20T19:48:23.965Z,18.86
2023-01-20T19:49:23.977Z,18.62
2023-01-20T19:50:23.982Z,18.66
2023-01-20T19:51:24.004Z,18.75
2023-01-20T19:52:23.994Z,18.78
2023-01-20T19:53:24.023Z,18.80
2023-01-20T19:54:24.014Z,18.90
2023-01-20T19:55:24.008Z,18.95
2023-01-20T19:56:24.018Z,18.79
2023-01-20T19:57:24.009Z,18.68
2023-01-20T19:58:24.021Z,18.67
2023-01-20T19:59:24.018Z,18.76
2023-01-20T20:00:24.040Z,18.77
2023-01-20T20:01:24.090Z,18.84
2023-01-20T20:02:24.077Z,18.82
2023-01-20T20:03:24.028Z,18.78
2023-01-20T20:04:24.023Z,18.64
2023-01-20T20:05:24.026Z,18.69
2023-01-20T20:06:24.031Z,18.76
2023-01-20T20:07:24.019Z,18.82
2023-01-20T20:08:24.015Z,18.76
2023-01-20T20:09:24.009Z,18.94
2023-01-20T20:10:24.024Z,18.85
2023-01-20T20:11:24.002Z,18.69
2023-01-20T20:12:24.003Z,18.63
2023-01-20T20:13:24.005Z,18.72
2023-01-20T20:14:23.987Z,18.78
2023-01-20T20:15:23.980Z,18.80
2023-01-20T20:16:23.979Z,18.84
2023-01-20T20:17:23.982Z,18.84
2023-01-20T20:18:26.049Z,18.60
2023-01-20T20:19:23.981Z,18.58
2023-01-20T20:20:23.989Z,18.71
2023-01-20T20:21:23.978Z,18.76
2023-01-20T20:22:23.971Z,18.81
2023-01-20T20:23:23.951Z,18.91
2023-01-20T20:24:23.963Z,18.88
2023-01-20T20:25:23.941Z,18.69
2023-01-20T20:26:23.967Z,18.68
2023-01-20T20:27:23.931Z,18.73
2023-01-20T20:28:23.935Z,18.72
2023-01-20T20:29:23.928Z,18.77
2023-01-20T20:30:23.930Z,18.90
2023-01-20T20:31:24.029Z,18.87
2023-01-20T20:32:25.493Z,18.69
2023-01-20T20:33:23.964Z,18.69
2023-01-20T20:34:23.923Z,18.73
2023-01-20T20:35:23.912Z,18.81
2023-01-20T20:36:23.911Z,18.84
2023-01-20T20:37:23.908Z,18.87
2023-01-20T20:38:23.901Z,18.89
2023-01-20T20:39:23.886Z,18.69
2023-01-20T20:40:23.888Z,18.65
2023-01-20T20:41:23.880Z,18.76
2023-01-20T20:42:23.881Z,18.78
2023-01-20T20:43:23.857Z,18.85
2023-01-20T20:44:23.862Z,18.92
2023-01-20T20:45:23.853Z,18.83
2023-01-20T20:46:23.921Z,18.68
2023-01-20T20:47:26.324Z,18.71
2023-01-20T20:48:23.837Z,18.70
2023-01-20T20:49:23.823Z,18.74
2023-01-20T20:50:23.824Z,18.88
2023-01-20T20:51:23.904Z,18.91
2023-01-20T20:52:23.809Z,18.80
2023-01-20T20:53:23.797Z,18.73
2023-01-20T20:54:23.790Z,18.71
2023-01-20T20:55:23.776Z,18.75
2023-01-20T20:56:23.776Z,18.83
2023-01-20T20:57:23.763Z,18.80
2023-01-20T20:58:23.751Z,18.79
2023-01-20T20:59:23.745Z,18.84
2023-01-20T21:00:23.744Z,18.86
2023-01-20T21:01:23.763Z,18.83
2023-01-20T21:02:23.865Z,18.89
2023-01-20T21:03:23.742Z,18.97
2023-01-20T21:04:23.731Z,18.94
2023-01-20T21:05:23.731Z,18.91
2023-01-20T21:06:23.728Z,18.98
2023-01-20T21:07:23.732Z,19.00
2023-01-20T21:08:23.752Z,19.04
2023-01-20T21:09:23.728Z,19.01
2023-01-20T21:10:23.720Z,18.84
2023-01-20T21:11:23.702Z,18.84
2023-01-20T21:12:23.708Z,18.88
2023-01-20T21:13:23.697Z,18.88
2023-01-20T21:14:23.714Z,18.90
2023-01-20T21:15:23.700Z,18.87
2023-01-20T21:16:24.069Z,18.94
2023-01-20T21:17:23.684Z,18.98
2023-01-20T21:18:23.669Z,18.94
2023-01-20T21:19:23.647Z,18.97
2023-01-20T21:20:23.648Z,19.01
2023-01-20T21:21:23.649Z,19.07
2023-01-20T21:22:23.644Z,19.08
2023-01-20T21:23:23.637Z,19.11
2023-01-20T21:24:23.643Z,19.21
2023-01-20T21:25:23.623Z,19.10
2023-01-20T21:26:23.629Z,19.00
2023-01-20T21:27:23.613Z,18.95
2023-01-20T21:28:23.605Z,19.03
2023-01-20T21:29:23.595Z,19.04
2023-01-20T21:30:23.654Z,19.14
2023-01-20T21:31:23.638Z,19.16
2023-01-20T21:32:23.583Z,19.09
2023-01-20T21:33:23.561Z,18.99
2023-01-20T21:34:23.560Z,18.95
2023-01-20T21:35:23.558Z,19.00
2023-01-20T21:36:23.542Z,19.01
2023-01-20T21:37:23.541Z,19.05
2023-01-20T21:38:23.530Z,19.05
2023-01-20T21:39:23.514Z,18.99
2023-01-20T21:40:23.506Z,19.05
2023-01-20T21:41:23.507Z,19.06
2023-01-20T21:42:23.483Z,19.03
2023-01-20T21:43:23.477Z,19.07
2023-01-20T21:44:23.472Z,19.05
2023-01-20T21:45:23.469Z,19.14
2023-01-20T21:46:23.489Z,19.21
2023-01-20T21:47:23.447Z,19.22
2023-01-20T21:48:23.442Z,19.12
2023-01-20T21:49:23.431Z,18.88
2023-01-20T21:50:23.417Z,19.00
2023-01-20T21:51:23.422Z,19.09
2023-01-20T21:52:23.400Z,19.09
2023-01-20T21:53:23.423Z,19.10
2023-01-20T21:54:23.391Z,19.15
2023-01-20T21:55:23.383Z,19.02
2023-01-20T21:56:23.407Z,18.90
2023-01-20T21:57:23.391Z,18.91
2023-01-20T21:58:23.398Z,18.89
2023-01-20T21:59:23.398Z,18.97
2023-01-20T22:00:23.367Z,19.04
2023-01-20T22:01:23.361Z,19.08
2023-01-20T22:02:23.393Z,18.90
2023-01-20T22:03:23.368Z,18.76
2023-01-20T22:04:23.366Z,18.86
2023-01-20T22:05:23.352Z,18.89
2023-01-20T22:06:23.367Z,19.01
2023-01-20T22:07:23.367Z,19.11
2023-01-20T22:08:23.343Z,19.17
2023-01-20T22:09:23.343Z,18.84
2023-01-20T22:10:23.324Z,18.78
2023-01-20T22:11:23.312Z,18.82
2023-01-20T22:12:23.314Z,18.90
2023-01-20T22:13:23.315Z,18.88
2023-01-20T22:14:23.290Z,18.93
2023-01-20T22:15:23.282Z,18.92
2023-01-20T22:16:23.320Z,18.91
2023-01-20T22:17:23.267Z,18.91
2023-01-20T22:18:23.264Z,18.90
2023-01-20T22:19:23.254Z,19.01
2023-01-20T22:20:23.255Z,18.96
2023-01-20T22:21:23.253Z,19.13
2023-01-20T22:22:23.231Z,19.09
2023-01-20T22:23:23.228Z,19.04
2023-01-20T22:24:23.232Z,19.08
2023-01-20T22:25:23.218Z,19.04
2023-01-20T22:26:23.213Z,19.14
2023-01-20T22:27:23.203Z,19.13
2023-01-20T22:28:24.560Z,19.21
2023-01-20T22:29:23.202Z,19.18
2023-01-20T22:30:23.195Z,18.98
2023-01-20T22:31:23.185Z,18.90
2023-01-20T22:32:23.175Z,18.99
2023-01-20T22:33:23.196Z,19.10
2023-01-20T22:34:23.157Z,19.02
2023-01-20T22:35:23.160Z,19.15
2023-01-20T22:36:23.150Z,19.03
2023-01-20T22:37:23.143Z,18.91
2023-01-20T22:38:23.155Z,18.86
2023-01-20T22:39:23.128Z,18.98
2023-01-20T22:40:23.129Z,18.87
2023-01-20T22:41:23.117Z,18.99
2023-01-20T22:42:23.113Z,18.94
2023-01-20T22:43:23.110Z,18.90
2023-01-20T22:44:23.099Z,18.90
2023-01-20T22:45:23.087Z,18.95
2023-01-20T22:46:23.074Z,18.95
2023-01-20T22:47:23.072Z,19.00
2023-01-20T22:48:23.066Z,18.99
2023-01-20T22:49:23.070Z,18.98
2023-01-20T22:50:23.031Z,19.00
2023-01-20T22:51:23.053Z,19.03
2023-01-20T22:52:23.027Z,19.03
2023-01-20T22:53:23.016Z,19.08
2023-01-20T22:54:23.032Z,18.99
2023-01-20T22:55:23.006Z,19.08
2023-01-20T22:56:23.098Z,19.16
2023-01-20T22:57:23.003Z,19.13
2023-01-20T22:58:23.014Z,19.06
2023-01-20T22:59:23.012Z,19.18
2023-01-20T23:00:24.206Z,19.13
2023-01-20T23:01:23.023Z,19.10
2023-01-20T23:02:22.992Z,19.15
2023-01-20T23:03:22.991Z,19.38
2023-01-20T23:04:22.982Z,19.20
2023-01-20T23:05:22.989Z,19.15
2023-01-20T23:06:23.019Z,19.09
2023-01-20T23:07:23.024Z,19.18
2023-01-20T23:08:23.030Z,19.27
2023-01-20T23:09:23.061Z,19.24
2023-01-20T23:10:23.062Z,19.22
2023-01-20T23:11:23.065Z,19.24
2023-01-20T23:12:23.103Z,19.27
2023-01-20T23:13:23.103Z,19.28
2023-01-20T23:14:23.160Z,19.04
2023-01-20T23:15:23.135Z,19.11
2023-01-20T23:16:23.232Z,18.95
2023-01-20T23:17:23.182Z,19.08
2023-01-20T23:18:23.185Z,19.00
2023-01-20T23:19:23.194Z,18.98
2023-01-20T23:20:23.239Z,19.06
2023-01-20T23:21:23.229Z,19.08
2023-01-20T23:22:23.236Z,19.14
2023-01-20T23:23:23.257Z,19.17
2023-01-20T23:24:23.265Z,19.20
2023-01-20T23:25:23.268Z,19.17
2023-01-20T23:26:23.299Z,19.16
2023-01-20T23:27:23.299Z,19.29
2023-01-20T23:28:23.306Z,19.17
2023-01-20T23:29:23.324Z,19.26
2023-01-20T23:30:23.331Z,19.24
2023-01-20T23:31:23.346Z,19.26
2023-01-20T23:32:23.350Z,19.26
2023-01-20T23:33:23.367Z,19.24
2023-01-20T23:34:23.379Z,19.20
2023-01-20T23:35:23.382Z,19.20
2023-01-20T23:36:23.393Z,19.19
2023-01-20T23:37:23.396Z,19.29
2023-01-20T23:38:23.411Z,19.26
2023-01-20T23:39:23.428Z,19.27
2023-01-20T23:40:23.446Z,19.39
2023-01-20T23:41:23.449Z,19.24
2023-01-20T23:42:23.472Z,19.18
2023-01-20T23:43:23.474Z,19.17
2023-01-20T23:44:23.505Z,19.23
2023-01-20T23:45:23.511Z,19.25
2023-01-20T23:46:23.528Z,19.31
2023-01-20T23:47:23.536Z,19.23
2023-01-20T23:48:23.538Z,19.38
2023-01-20T23:49:23.573Z,19.21
2023-01-20T23:50:23.554Z,18.97
2023-01-20T23:51:23.622Z,19.12
2023-01-20T23:52:23.613Z,19.07
2023-01-20T23:53:23.612Z,19.13
2023-01-20T23:54:23.628Z,19.19
2023-01-20T23:55:23.629Z,19.23
2023-01-20T23:56:23.658Z,19.04
2023-01-20T23:57:23.670Z,18.96
2023-01-20T23:58:23.679Z,18.95
2023-01-20T23:59:23.701Z,19.00
